sensor_id;sensor_type;location;lat;lon;timestamp;pressure;altitude;pressure_sealevel;temperature;humidity
977;BME280;477;51.436;7.292;2024-03-23T18:32:07;99885.59;;;8.84;100.00
977;BME280;477;51.436;7.292;2024-03-23T18:34:35;99884.06;;;9.51;97.68
977;BME280;477;51.436;7.292;2024-03-23T18:37:01;99893.69;;;8.59;100.00
977;BME280;477;51.436;7.292;2024-03-23T18:39:29;99884.22;;;9.13;100.00
977;BME280;477;51.436;7.292;2024-03-23T18:41:55;99888.94;;;9.23;100.00
977;BME280;477;51.436;7.292;2024-03-23T18:44:23;99892.22;;;9.09;99.49
977;BME280;477;51.436;7.292;2024-03-23T18:46:50;99884.81;;;9.36;97.87
977;BME280;477;51.436;7.292;2024-03-23T18:49:21;99887.69;;;9.64;96.54
977;BME280;477;51.436;7.292;2024-03-23T18:51:47;99884.38;;;9.45;98.47
977;BME280;477;51.436;7.292;2024-03-23T18:54:15;99887.38;;;9.01;100.00
977;BME280;477;51.436;7.292;2024-03-23T18:56:41;99893.75;;;9.30;99.44
977;BME280;477;51.436;7.292;2024-03-23T18:59:09;99885.25;;;9.09;99.31
977;BME280;477;51.436;7.292;2024-03-23T19:01:36;99878.69;;;9.20;98.63
977;BME280;477;51.436;7.292;2024-03-23T19:04:04;99879.53;;;9.20;97.60
977;BME280;477;51.436;7.292;2024-03-23T19:06:32;99886.03;;;9.29;96.75
977;BME280;477;51.436;7.292;2024-03-23T19:09:00;99880.53;;;9.35;96.81
977;BME280;477;51.436;7.292;2024-03-23T19:11:27;99886.50;;;8.83;97.87
977;BME280;477;51.436;7.292;2024-03-23T19:13:55;99884.66;;;9.04;98.46
977;BME280;477;51.436;7.292;2024-03-23T19:16:21;99881.78;;;9.45;95.93
977;BME280;477;51.436;7.292;2024-03-23T19:18:49;99881.91;;;9.25;96.80
977;BME280;477;51.436;7.292;2024-03-23T19:21:15;99882.06;;;9.22;96.53
977;BME280;477;51.436;7.292;2024-03-23T19:23:45;99894.59;;;8.77;99.34
977;BME280;477;51.436;7.292;2024-03-23T19:26:12;99899.47;;;9.20;96.85
977;BME280;477;51.436;7.292;2024-03-23T19:28:39;99892.25;;;9.07;98.27
977;BME280;477;51.436;7.292;2024-03-23T19:31:06;99883.84;;;9.02;96.83
977;BME280;477;51.436;7.292;2024-03-23T19:33:35;99883.25;;;8.97;97.09
977;BME280;477;51.436;7.292;2024-03-23T19:36:02;99871.63;;;8.87;100.00
977;BME280;477;51.436;7.292;2024-03-23T19:38:30;99876.22;;;8.99;98.80
977;BME280;477;51.436;7.292;2024-03-23T19:40:58;99869.50;;;8.95;99.65
977;BME280;477;51.436;7.292;2024-03-23T19:43:26;99879.69;;;8.81;100.00
977;BME280;477;51.436;7.292;2024-03-23T19:45:55;99867.75;;;8.96;99.47
977;BME280;477;51.436;7.292;2024-03-23T19:48:23;99872.09;;;9.12;98.96
977;BME280;477;51.436;7.292;2024-03-23T19:50:56;99862.34;;;9.00;100.00
977;BME280;477;51.436;7.292;2024-03-23T19:53:23;99867.59;;;8.62;100.00
977;BME280;477;51.436;7.292;2024-03-23T19:55:54;99870.03;;;9.02;100.00
977;BME280;477;51.436;7.292;2024-03-23T19:58:23;99870.50;;;8.56;100.00
977;BME280;477;51.436;7.292;2024-03-23T20:00:50;99871.38;;;8.74;100.00
977;BME280;477;51.436;7.292;2024-03-23T20:03:17;99882.13;;;8.67;100.00
977;BME280;477;51.436;7.292;2024-03-23T20:05:45;99880.63;;;8.80;100.00
977;BME280;477;51.436;7.292;2024-03-23T20:08:12;99886.81;;;8.77;100.00
977;BME280;477;51.436;7.292;2024-03-23T20:10:46;99886.47;;;8.47;100.00
977;BME280;477;51.436;7.292;2024-03-23T20:13:14;99899.16;;;7.75;100.00
977;BME280;477;51.436;7.292;2024-03-23T20:15:52;99886.75;;;8.41;100.00
977;BME280;477;51.436;7.292;2024-03-23T20:18:20;99887.88;;;8.54;100.00
977;BME280;477;51.436;7.292;2024-03-23T20:20:47;99878.53;;;8.69;100.00
977;BME280;477;51.436;7.292;2024-03-23T20:23:15;99866.34;;;8.52;100.00
977;BME280;477;51.436;7.292;2024-03-23T20:25:50;99854.56;;;8.81;100.00
977;BME280;477;51.436;7.292;2024-03-23T20:28:18;99861.44;;;8.46;100.00
977;BME280;477;51.436;7.292;2024-03-23T20:30:54;99852.88;;;8.63;100.00
977;BME280;477;51.436;7.292;2024-03-23T20:33:23;99853.13;;;8.76;100.00
977;BME280;477;51.436;7.292;2024-03-23T20:35:51;99846.78;;;8.81;100.00
977;BME280;477;51.436;7.292;2024-03-23T20:38:19;99849.66;;;8.94;100.00
977;BME280;477;51.436;7.292;2024-03-23T20:40:51;99848.00;;;8.74;100.00
977;BME280;477;51.436;7.292;2024-03-23T20:43:19;99854.78;;;8.77;100.00
977;BME280;477;51.436;7.292;2024-03-23T20:45:55;99855.75;;;8.93;100.00
977;BME280;477;51.436;7.292;2024-03-23T20:48:22;99853.81;;;8.79;100.00
977;BME280;477;51.436;7.292;2024-03-23T20:50:56;99846.69;;;8.66;100.00
977;BME280;477;51.436;7.292;2024-03-23T20:53:22;99831.63;;;8.91;100.00
977;BME280;477;51.436;7.292;2024-03-23T20:55:52;99824.59;;;8.93;100.00
977;BME280;477;51.436;7.292;2024-03-23T20:58:20;99827.44;;;8.88;100.00
977;BME280;477;51.436;7.292;2024-03-23T21:00:51;99822.16;;;8.54;100.00
977;BME280;477;51.436;7.292;2024-03-23T21:03:18;99828.28;;;8.70;100.00
977;BME280;477;51.436;7.292;2024-03-23T21:05:46;99818.09;;;7.52;100.00
977;BME280;477;51.436;7.292;2024-03-23T21:08:13;99830.25;;;7.10;100.00
977;BME280;477;51.436;7.292;2024-03-23T21:10:48;99846.09;;;7.02;100.00
977;BME280;477;51.436;7.292;2024-03-23T21:13:16;99851.88;;;7.09;100.00
977;BME280;477;51.436;7.292;2024-03-23T21:15:49;99823.81;;;7.98;100.00
977;BME280;477;51.436;7.292;2024-03-23T21:18:16;99822.88;;;8.39;100.00
977;BME280;477;51.436;7.292;2024-03-23T21:20:45;99812.91;;;8.48;100.00
977;BME280;477;51.436;7.292;2024-03-23T21:23:13;99808.72;;;7.29;100.00
977;BME280;477;51.436;7.292;2024-03-23T21:25:41;99811.38;;;8.06;100.00
977;BME280;477;51.436;7.292;2024-03-23T21:28:12;99813.41;;;8.00;100.00
977;BME280;477;51.436;7.292;2024-03-23T21:30:39;99814.59;;;8.30;100.00
977;BME280;477;51.436;7.292;2024-03-23T21:33:14;99814.94;;;8.23;100.00
977;BME280;477;51.436;7.292;2024-03-23T21:35:42;99801.34;;;8.18;100.00
977;BME280;477;51.436;7.292;2024-03-23T21:38:08;99804.38;;;8.46;100.00
977;BME280;477;51.436;7.292;2024-03-23T21:40:36;99807.78;;;8.28;100.00
977;BME280;477;51.436;7.292;2024-03-23T21:43:04;99806.88;;;8.29;100.00
977;BME280;477;51.436;7.292;2024-03-23T21:45:32;99809.53;;;8.27;100.00
977;BME280;477;51.436;7.292;2024-03-23T21:47:59;99797.06;;;8.35;100.00
977;BME280;477;51.436;7.292;2024-03-23T21:50:28;99792.66;;;8.19;100.00
977;BME280;477;51.436;7.292;2024-03-23T21:52:55;99792.16;;;7.73;100.00
977;BME280;477;51.436;7.292;2024-03-23T21:55:22;99794.56;;;8.15;100.00
977;BME280;477;51.436;7.292;2024-03-23T21:57:49;99791.47;;;8.07;100.00
977;BME280;477;51.436;7.292;2024-03-23T22:00:17;99792.31;;;8.26;100.00
977;BME280;477;51.436;7.292;2024-03-23T22:02:44;99778.88;;;8.37;100.00
977;BME280;477;51.436;7.292;2024-03-23T22:05:12;99787.19;;;8.25;100.00
977;BME280;477;51.436;7.292;2024-03-23T22:07:40;99791.69;;;8.21;100.00
977;BME280;477;51.436;7.292;2024-03-23T22:10:09;99784.75;;;8.22;100.00
977;BME280;477;51.436;7.292;2024-03-23T22:12:36;99780.25;;;8.25;100.00
977;BME280;477;51.436;7.292;2024-03-23T22:15:06;99781.78;;;8.29;100.00
977;BME280;477;51.436;7.292;2024-03-23T22:17:32;99775.63;;;8.32;100.00
977;BME280;477;51.436;7.292;2024-03-23T22:20:00;99776.81;;;7.87;100.00
977;BME280;477;51.436;7.292;2024-03-23T22:22:26;99773.31;;;7.69;100.00
977;BME280;477;51.436;7.292;2024-03-23T22:24:56;99776.31;;;7.60;100.00
977;BME280;477;51.436;7.292;2024-03-23T22:27:22;99770.03;;;7.45;100.00
977;BME280;477;51.436;7.292;2024-03-23T22:29:50;99775.28;;;8.21;100.00
977;BME280;477;51.436;7.292;2024-03-23T22:32:18;99774.78;;;8.13;100.00
977;BME280;477;51.436;7.292;2024-03-23T22:34:45;99769.69;;;8.11;100.00
977;BME280;477;51.436;7.292;2024-03-23T22:37:12;99768.91;;;7.90;100.00
977;BME280;477;51.436;7.292;2024-03-23T22:39:40;99761.03;;;8.29;100.00
977;BME280;477;51.436;7.292;2024-03-23T22:42:09;99765.00;;;8.00;100.00
977;BME280;477;51.436;7.292;2024-03-23T22:44:37;99757.00;;;7.86;100.00
977;BME280;477;51.436;7.292;2024-03-23T22:47:04;99753.47;;;8.25;100.00
977;BME280;477;51.436;7.292;2024-03-23T22:49:32;99749.91;;;7.52;100.00
977;BME280;477;51.436;7.292;2024-03-23T22:51:58;99744.44;;;7.77;100.00
977;BME280;477;51.436;7.292;2024-03-23T22:54:26;99748.66;;;7.98;100.00
977;BME280;477;51.436;7.292;2024-03-23T22:56:53;99746.13;;;8.16;100.00
977;BME280;477;51.436;7.292;2024-03-23T22:59:22;99739.53;;;8.08;100.00
977;BME280;477;51.436;7.292;2024-03-23T23:01:49;99740.31;;;8.10;100.00
977;BME280;477;51.436;7.292;2024-03-23T23:04:18;99732.63;;;7.90;100.00
977;BME280;477;51.436;7.292;2024-03-23T23:06:45;99731.75;;;8.08;100.00
977;BME280;477;51.436;7.292;2024-03-23T23:09:13;99720.25;;;7.78;100.00
977;BME280;477;51.436;7.292;2024-03-23T23:11:40;99714.19;;;7.96;100.00
977;BME280;477;51.436;7.292;2024-03-23T23:14:07;99710.19;;;8.08;100.00
977;BME280;477;51.436;7.292;2024-03-23T23:16:36;99703.34;;;7.88;100.00
977;BME280;477;51.436;7.292;2024-03-23T23:19:04;99703.63;;;7.82;100.00
977;BME280;477;51.436;7.292;2024-03-23T23:21:31;99704.34;;;7.85;100.00
977;BME280;477;51.436;7.292;2024-03-23T23:23:58;99705.22;;;8.03;100.00
977;BME280;477;51.436;7.292;2024-03-23T23:26:25;99696.63;;;7.84;100.00
977;BME280;477;51.436;7.292;2024-03-23T23:28:53;99700.19;;;7.44;100.00
977;BME280;477;51.436;7.292;2024-03-23T23:31:20;99700.25;;;7.99;100.00
977;BME280;477;51.436;7.292;2024-03-23T23:33:49;99690.88;;;7.96;100.00
977;BME280;477;51.436;7.292;2024-03-23T23:36:15;99690.16;;;7.93;100.00
977;BME280;477;51.436;7.292;2024-03-23T23:38:48;99686.34;;;8.19;100.00
977;BME280;477;51.436;7.292;2024-03-23T23:41:15;99689.28;;;7.75;100.00
977;BME280;477;51.436;7.292;2024-03-23T23:43:55;99677.25;;;8.10;100.00
977;BME280;477;51.436;7.292;2024-03-23T23:46:22;99681.75;;;8.06;100.00
977;BME280;477;51.436;7.292;2024-03-23T23:48:51;99675.41;;;7.95;100.00
977;BME280;477;51.436;7.292;2024-03-23T23:51:17;99670.84;;;7.62;100.00
977;BME280;477;51.436;7.292;2024-03-23T23:53:46;99664.56;;;7.68;100.00
977;BME280;477;51.436;7.292;2024-03-23T23:56:12;99670.22;;;7.95;100.00
977;BME280;477;51.436;7.292;2024-03-23T23:58:40;99665.25;;;7.90;100.00
